.
WxDataArchive / Data Records for 2015-03-02
2015-03-01 March 2015 2015-03-03

Data Records for Monday, 02 March 2015

Time	Temp	Chill	HIndex	Humid	Dewpt	 Wind 	HiWind	WindDir	Rain 	Barom
-----	----	-----	------	-----	-----	------	------	-------	-----	-----
00:00	21.9	21.9	21.9	78	16.1	2	4	270	0.00	30.330 
00:05	21.8	21.8	21.8	78	16.0	1	3	270	0.00	30.330 
00:10	21.6	21.6	21.6	78	15.8	1	4	270	0.00	30.330 
00:15	21.3	21.3	21.3	78	15.5	1	3	270	0.00	30.334 
00:20	21.1	21.1	21.1	78	15.3	1	3	270	0.00	30.334 
00:25	21.0	21.0	21.0	79	15.5	1	4	270	0.00	30.334 
00:30	20.8	20.8	20.8	79	15.3	1	3	270	0.00	30.329 
00:35	20.6	20.6	20.6	79	15.1	1	3	270	0.00	30.329 
00:40	20.5	20.5	20.5	79	15.0	1	3	270	0.00	30.329 
00:45	20.3	20.3	20.3	79	14.8	1	4	270	0.00	30.335 
00:50	20.2	20.2	20.2	79	14.8	2	4	270	0.00	30.335 
00:55	20.2	20.2	20.2	79	14.8	1	3	270	0.00	30.335 
01:00	20.2	20.2	20.2	79	14.8	1	3	270	0.00	30.341 
01:05	20.2	20.2	20.2	79	14.8	1	4	270	0.00	30.341 
01:10	20.2	20.2	20.2	79	14.8	1	6	292	0.00	30.341 
01:15	20.2	20.2	20.2	78	14.5	1	3	292	0.00	30.339 
01:20	20.0	20.0	20.0	78	14.3	1	3	292	0.00	30.339 
01:25	19.7	19.7	19.7	78	14.0	1	3	292	0.00	30.339 
01:30	19.5	19.5	19.5	78	13.8	1	3	292	0.00	30.342 
01:35	19.4	19.4	19.4	78	13.7	0	2	292	0.00	30.342 
01:40	19.2	19.2	19.2	78	13.5	0	1	292	0.00	30.342 
01:45	19.1	19.1	19.1	79	13.7	0	1	292	0.00	30.347 
01:50	18.9	18.9	18.9	79	13.5	0	3	292	0.00	30.347 
01:55	18.8	18.8	18.8	80	13.7	0	3	292	0.00	30.347 
02:00	18.6	18.6	18.6	80	13.5	1	3	292	0.00	30.359 
02:05	18.6	18.6	18.6	81	13.8	1	2	292	0.00	30.359 
02:10	18.6	18.6	18.6	81	13.8	1	4	292	0.00	30.359 
02:15	18.4	18.4	18.4	81	13.6	1	3	292	0.00	30.359 
02:20	18.4	18.4	18.4	81	13.6	1	3	292	0.00	30.359 
02:25	18.6	18.6	18.6	81	13.8	1	3	292	0.00	30.359 
02:30	18.6	18.6	18.6	81	13.8	2	4	292	0.00	30.369 
02:35	18.6	18.6	18.6	81	13.8	2	4	292	0.00	30.369 
02:40	18.6	18.6	18.6	81	13.8	1	3	292	0.00	30.369 
02:45	18.6	18.6	18.6	81	13.8	1	4	292	0.00	30.367 
02:50	18.4	18.4	18.4	81	13.6	1	3	292	0.00	30.367 
02:55	18.3	18.3	18.3	81	13.5	1	3	292	0.00	30.367 
03:00	18.1	18.1	18.1	81	13.3	1	3	292	0.00	30.374 
03:05	18.1	18.1	18.1	81	13.3	1	2	292	0.00	30.374 
03:10	18.0	18.0	18.0	81	13.2	0	3	292	0.00	30.374 
03:15	17.7	17.7	17.7	81	12.9	0	2	292	0.00	30.370 
03:20	17.5	17.5	17.5	81	12.7	0	1	292	0.00	30.370 
03:25	17.2	17.2	17.2	81	12.4	0	2	292	0.00	30.370 
03:30	17.0	17.0	17.0	81	12.2	0	2	292	0.00	30.372 
03:35	16.9	16.9	16.9	81	12.1	0	2	292	0.00	30.372 
03:40	16.7	16.7	16.7	82	12.2	0	2	292	0.00	30.372 
03:45	16.5	16.5	16.5	82	12.0	0	2	292	0.00	30.376 
03:50	16.4	16.4	16.4	82	11.9	1	3	292	0.00	30.376 
03:55	16.4	16.4	16.4	82	11.9	0	1	292	0.00	30.376 
04:00	16.2	16.2	16.2	82	11.7	0	2	292	0.00	30.382 
04:05	16.1	16.1	16.1	82	11.6	0	1	292	0.00	30.382 
04:10	15.9	15.9	15.9	82	11.4	0	2	292	0.00	30.382 
04:15	15.7	15.7	15.7	83	11.5	0	2	292	0.00	30.388 
04:20	15.7	15.7	15.7	83	11.5	0	2	292	0.00	30.388 
04:25	15.7	15.7	15.7	83	11.5	1	2	292	0.00	30.388 
04:30	15.6	15.6	15.6	83	11.4	0	1	292	0.00	30.397 
04:35	15.4	15.4	15.4	83	11.2	0	2	292	0.00	30.397 
04:40	15.4	15.4	15.4	83	11.2	0	2	292	0.00	30.397 
04:45	15.4	15.4	15.4	83	11.2	0	2	292	0.00	30.410 
04:50	15.2	15.2	15.2	82	10.7	0	2	292	0.00	30.410 
04:55	15.1	15.1	15.1	82	10.6	0	1	292	0.00	30.410 
05:00	14.9	14.9	14.9	82	10.4	0	2	292	0.00	30.407 
05:05	14.9	14.9	14.9	82	10.4	0	2	292	0.00	30.407 
05:10	14.8	14.8	14.8	82	10.3	0	1	292	0.00	30.407 
05:15	14.6	14.6	14.6	82	10.1	0	2	292	0.00	30.417 
05:20	14.6	14.6	14.6	82	10.1	0	2	292	0.00	30.417 
05:25	14.4	14.4	14.4	82	9.9	0	2	292	0.00	30.417 
05:30	14.3	14.3	14.3	82	9.8	0	2	292	0.00	30.425 
05:35	14.1	14.1	14.1	82	9.6	0	1	292	0.00	30.425 
05:40	14.0	14.0	14.0	82	9.5	0	1	292	0.00	30.425 
05:45	14.0	14.0	14.0	82	9.5	0	1	292	0.00	30.431 
05:50	13.8	13.8	13.8	82	9.3	0	1	292	0.00	30.431 
05:55	13.6	13.6	13.6	82	9.1	0	1	292	0.00	30.431 
06:00	13.3	13.3	13.3	82	8.9	0	1	292	0.00	30.438 
06:05	13.1	13.1	13.1	82	8.7	0	1	292	0.00	30.438 
06:10	12.9	12.9	12.9	82	8.5	0	1	292	0.00	30.438 
06:15	12.8	12.8	12.8	82	8.4	0	1	292	0.00	30.443 
06:20	12.6	12.6	12.6	82	8.2	0	1	292	0.00	30.443 
06:25	12.6	12.6	12.6	82	8.2	0	0	---	0.00	30.443 
06:30	12.3	12.3	12.3	82	7.9	0	1	292	0.00	30.453 
06:35	12.1	12.1	12.1	82	7.7	0	0	---	0.00	30.453 
06:40	12.1	12.1	12.1	82	7.7	0	1	292	0.00	30.453 
06:45	11.9	11.9	11.9	83	7.8	0	1	292	0.00	30.460 
06:50	11.7	11.7	11.7	83	7.6	0	0	---	0.00	30.460 
06:55	11.7	11.7	11.7	83	7.6	0	1	292	0.00	30.460 
07:00	11.6	11.6	11.6	83	7.5	0	1	292	0.00	30.461 
07:05	11.4	11.4	11.4	83	7.3	0	0	---	0.00	30.461 
07:10	11.4	11.4	11.4	83	7.3	0	0	---	0.00	30.461 
07:15	11.1	11.1	11.1	83	7.0	0	0	---	0.00	30.474 
07:20	10.7	10.7	10.7	83	6.6	0	0	---	0.00	30.474 
07:25	10.7	10.7	10.7	83	6.6	0	1	292	0.00	30.474 
07:30	10.7	10.7	10.7	83	6.6	0	0	---	0.00	30.480 
07:35	10.7	10.7	10.7	83	6.6	0	0	---	0.00	30.480 
07:40	10.9	10.9	10.9	84	7.0	0	0	---	0.00	30.480 
07:45	11.1	11.1	11.1	84	7.2	0	1	292	0.00	30.482 
07:50	11.4	11.4	11.4	84	7.5	0	1	292	0.00	30.482 
07:55	11.6	11.6	11.6	84	7.7	0	1	292	0.00	30.482 
08:00	11.9	11.9	11.9	84	8.0	0	1	292	0.00	30.492 
08:05	12.1	12.1	12.1	84	8.2	0	1	292	0.00	30.492 
08:10	12.4	12.4	12.4	84	8.5	0	1	292	0.00	30.492 
08:15	12.8	12.8	12.8	83	8.6	0	1	292	0.00	30.499 
08:20	13.1	13.1	13.1	83	8.9	0	1	292	0.00	30.499 
08:25	13.6	13.6	13.6	83	9.4	0	1	292	0.00	30.499 
08:30	14.0	14.0	14.0	82	9.5	0	1	292	0.00	30.504 
08:35	14.3	14.3	14.3	82	9.8	0	2	292	0.00	30.504 
08:40	14.6	14.6	14.6	81	9.9	0	1	292	0.00	30.504 
08:45	14.9	14.9	14.9	80	9.9	0	2	292	0.00	30.503 
08:50	15.2	15.2	15.2	79	9.9	0	2	292	0.00	30.503 
08:55	15.7	15.7	15.7	79	10.4	0	2	292	0.00	30.503 
09:00	16.2	16.2	16.2	78	10.6	1	3	292	0.00	30.507 
09:05	16.7	16.7	16.7	77	10.8	0	1	292	0.00	30.507 
09:10	17.2	17.2	17.2	76	11.0	0	2	292	0.00	30.507 
09:15	17.5	17.5	17.5	75	11.0	1	3	292	0.00	30.514 
09:20	18.0	18.0	18.0	74	11.1	1	2	292	0.00	30.514 
09:25	18.3	18.3	18.3	73	11.1	0	2	292	0.00	30.514 
09:30	18.8	18.8	18.8	73	11.6	1	3	292	0.00	30.516 
09:35	19.2	19.2	19.2	72	11.7	1	2	292	0.00	30.516 
09:40	19.7	19.7	19.7	71	11.8	1	2	292	0.00	30.516 
09:45	20.3	20.3	20.3	71	12.4	0	3	292	0.00	30.519 
09:50	20.8	20.8	20.8	70	12.6	0	2	292	0.00	30.519 
09:55	21.3	21.3	21.3	69	12.7	0	2	292	0.00	30.519 
10:00	21.6	21.6	21.6	68	12.7	1	2	292	0.00	30.517 
10:05	21.9	21.9	21.9	68	13.0	0	2	292	0.00	30.517 
10:10	22.5	22.5	22.5	67	13.2	0	2	292	0.00	30.517 
10:15	22.7	22.7	22.7	66	13.1	1	2	292	0.01	30.516 
10:20	23.0	23.0	23.0	66	13.4	1	3	292	0.00	30.516 
10:25	23.3	23.3	23.3	66	13.6	1	2	292	0.00	30.516 
10:30	23.6	23.6	23.6	65	13.6	1	3	248	0.00	30.521 
10:35	24.4	24.4	24.4	65	14.3	0	1	248	0.00	30.521 
10:40	25.0	25.0	25.0	64	14.6	0	2	248	0.01	30.521 
10:45	25.1	25.1	25.1	64	14.7	0	2	248	0.00	30.525 
10:50	25.3	25.3	25.3	63	14.5	0	2	248	0.00	30.525 
10:55	25.4	25.4	25.4	63	14.6	1	2	248	0.00	30.525 
11:00	25.6	25.6	25.6	63	14.8	1	2	248	0.00	30.527 
11:05	25.7	25.7	25.7	62	14.5	1	3	248	0.01	30.527 
11:10	25.7	25.7	25.7	62	14.5	2	5	292	0.00	30.527 
11:15	25.8	25.8	25.8	63	15.0	1	3	338	0.00	30.528 
11:20	26.1	26.1	26.1	63	15.3	1	4	338	0.01	30.528 
11:25	26.3	26.3	26.3	63	15.4	1	3	270	0.00	30.528 
11:30	26.4	26.4	26.4	62	15.2	1	3	270	0.00	30.526 
11:35	26.6	26.6	26.6	62	15.4	1	3	292	0.01	30.526 
11:40	26.9	26.9	26.9	61	15.3	2	3	292	0.00	30.526 
11:45	27.0	27.0	27.0	62	15.7	1	2	292	0.00	30.527 
11:50	27.6	27.6	27.6	62	16.3	1	3	292	0.00	30.527 
11:55	27.8	27.8	27.8	61	16.1	1	3	292	0.01	30.527 
12:00	27.9	27.9	27.9	60	15.8	1	3	292	0.00	30.525 
12:05	27.9	27.9	27.9	60	15.8	1	2	292	0.00	30.525 
12:10	28.1	28.1	28.1	60	16.0	1	3	292	0.00	30.525 
12:15	27.9	27.9	27.9	59	15.5	2	3	292	0.01	30.530 
12:20	27.9	27.9	27.9	59	15.5	1	2	292	0.00	30.530 
12:25	28.1	28.1	28.1	58	15.3	1	4	292	0.00	30.530 
12:30	28.1	28.1	28.1	57	14.9	1	3	292	0.00	30.529 
12:35	28.2	28.2	28.2	57	14.9	1	3	292	0.00	30.529 
12:40	28.4	28.4	28.4	56	14.7	1	4	292	0.01	30.529 
12:45	28.5	28.5	28.5	56	14.8	1	3	292	0.00	30.539 
12:50	28.7	28.7	28.7	56	15.0	1	2	292	0.00	30.539 
12:55	28.8	28.8	28.8	56	15.1	1	4	292	0.01	30.539 
13:00	29.1	29.1	29.1	57	15.8	0	2	292	0.00	30.532 
13:05	29.5	29.5	29.5	56	15.8	1	2	292	0.00	30.532 
13:10	29.4	29.4	29.4	54	14.8	1	2	292	0.01	30.532 
13:15	29.1	29.1	29.1	54	14.6	1	3	292	0.00	30.524 
13:20	29.3	29.3	29.3	54	14.7	1	2	292	0.00	30.524 
13:25	29.1	29.1	29.1	52	13.7	1	4	292	0.01	30.524 
13:30	29.3	29.3	29.3	52	13.9	1	4	292	0.00	30.515 
13:35	29.4	29.4	29.4	52	14.0	1	3	292	0.00	30.515 
13:40	29.5	29.5	29.5	53	14.5	1	3	292	0.00	30.515 
13:45	29.4	29.4	29.4	54	14.8	1	5	315	0.01	30.511 
13:50	29.5	29.5	29.5	52	14.1	1	3	315	0.00	30.511 
13:55	30.0	30.0	30.0	53	15.0	0	2	315	0.00	30.511 
14:00	30.3	30.3	30.3	51	14.4	0	2	315	0.00	30.503 
14:05	30.4	30.4	30.4	51	14.5	1	3	315	0.00	30.503 
14:10	30.4	30.4	30.4	52	14.9	0	2	315	0.00	30.503 
14:15	30.4	30.4	30.4	52	14.9	0	3	315	0.01	30.503 
14:20	30.3	30.3	30.3	50	13.9	0	1	315	0.00	30.503 
14:25	30.4	30.4	30.4	49	13.6	0	2	315	0.00	30.503 
14:30	30.4	30.4	30.4	50	14.0	0	2	315	0.00	30.497 
14:35	30.7	30.7	30.7	51	14.7	0	2	315	0.00	30.497 
14:40	30.9	30.9	30.9	51	14.9	0	2	315	0.00	30.497 
14:45	30.6	30.6	30.6	50	14.2	1	3	270	0.00	30.494 
14:50	30.4	30.4	30.4	50	14.0	1	3	270	0.00	30.494 
14:55	30.4	30.4	30.4	50	14.0	0	1	270	0.00	30.494 
15:00	30.6	30.6	30.6	50	14.2	0	2	270	0.00	30.485 
15:05	30.7	30.7	30.7	50	14.3	1	3	270	0.01	30.485 
15:10	30.9	30.9	30.9	49	14.0	0	2	270	0.00	30.485 
15:15	31.2	31.2	31.2	50	14.8	0	2	270	0.00	30.483 
15:20	31.0	31.0	31.0	47	13.2	1	4	270	0.00	30.483 
15:25	30.9	30.9	30.9	47	13.1	1	3	270	0.00	30.483 
15:30	30.6	30.6	30.6	46	12.3	1	5	292	0.00	30.481 
15:35	30.3	30.3	30.3	47	12.5	0	2	292	0.00	30.481 
15:40	30.3	30.3	30.3	47	12.5	0	2	292	0.00	30.481 
15:45	30.6	30.6	30.6	48	13.3	0	2	292	0.00	30.480 
15:50	30.7	30.7	30.7	46	12.4	0	1	292	0.00	30.480 
15:55	30.7	30.7	30.7	48	13.4	0	2	292	0.00	30.480 
16:00	31.0	31.0	31.0	47	13.2	0	3	292	0.00	30.479 
16:05	30.7	30.7	30.7	47	12.9	1	3	292	0.00	30.479 
16:10	30.7	30.7	30.7	47	12.9	1	3	292	0.00	30.479 
16:15	30.7	30.7	30.7	48	13.4	0	2	292	0.00	30.473 
16:20	30.6	30.6	30.6	47	12.8	0	2	292	0.00	30.473 
16:25	30.3	30.3	30.3	48	13.0	0	3	292	0.00	30.473 
16:30	30.1	30.1	30.1	48	12.8	0	3	292	0.00	30.470 
16:35	30.0	30.0	30.0	48	12.7	0	3	292	0.00	30.470 
16:40	29.8	29.8	29.8	48	12.5	0	2	292	0.00	30.470 
16:45	29.7	29.7	29.7	48	12.4	1	4	338	0.00	30.467 
16:50	29.5	29.5	29.5	49	12.7	0	3	338	0.00	30.467 
16:55	29.5	29.5	29.5	48	12.3	0	2	338	0.00	30.467 
17:00	29.5	29.5	29.5	48	12.3	0	3	338	0.00	30.455 
17:05	29.5	29.5	29.5	48	12.3	0	3	338	0.00	30.455 
17:10	29.4	29.4	29.4	48	12.2	0	2	315	0.00	30.455 
17:15	29.3	29.3	29.3	48	12.1	0	2	315	0.00	30.455 
17:20	29.3	29.3	29.3	48	12.1	0	2	315	0.00	30.455 
17:25	29.1	29.1	29.1	48	11.9	0	1	315	0.00	30.455 
17:30	29.0	29.0	29.0	48	11.8	0	1	315	0.00	30.456 
17:35	28.8	28.8	28.8	48	11.6	0	1	315	0.00	30.456 
17:40	28.7	28.7	28.7	48	11.5	0	1	315	0.00	30.456 
17:45	28.4	28.4	28.4	49	11.7	0	1	315	0.00	30.465 
17:50	28.2	28.2	28.2	50	12.0	0	0	---	0.00	30.465 
17:55	28.1	28.1	28.1	50	11.9	0	0	---	0.00	30.465 
18:00	28.1	28.1	28.1	50	11.9	0	1	315	0.00	30.461 
18:05	28.1	28.1	28.1	51	12.3	0	0	---	0.00	30.461 
18:10	27.9	27.9	27.9	51	12.1	0	0	---	0.00	30.461 
18:15	27.9	27.9	27.9	51	12.1	0	1	315	0.00	30.452 
18:20	27.8	27.8	27.8	51	12.1	0	0	---	0.00	30.452 
18:25	27.6	27.6	27.6	51	11.9	0	0	---	0.00	30.452 
18:30	27.6	27.6	27.6	51	11.9	0	0	---	0.00	30.450 
18:35	27.5	27.5	27.5	52	12.2	0	0	---	0.00	30.450 
18:40	27.2	27.2	27.2	52	11.9	0	0	---	0.00	30.450 
18:45	26.9	26.9	26.9	53	12.1	0	0	---	0.00	30.455 
18:50	26.6	26.6	26.6	54	12.2	0	0	---	0.00	30.455 
18:55	26.3	26.3	26.3	57	13.2	0	0	---	0.00	30.455 
19:00	25.8	25.8	25.8	58	13.1	0	0	---	0.00	30.446 
19:05	25.4	25.4	25.4	60	13.5	0	1	315	0.00	30.446 
19:10	25.0	25.0	25.0	60	13.1	0	1	315	0.00	30.446 
19:15	24.7	24.7	24.7	61	13.2	0	1	315	0.00	30.449 
19:20	24.4	24.4	24.4	62	13.3	0	1	315	0.00	30.449 
19:25	24.1	24.1	24.1	63	13.4	0	1	315	0.00	30.449 
19:30	23.8	23.8	23.8	63	13.1	0	0	---	0.00	30.449 
19:35	23.5	23.5	23.5	63	12.8	0	0	---	0.00	30.449 
19:40	23.3	23.3	23.3	64	13.0	0	0	---	0.00	30.449 
19:45	23.2	23.2	23.2	64	12.9	0	1	315	0.00	30.448 
19:50	23.0	23.0	23.0	65	13.0	0	1	315	0.00	30.448 
19:55	23.0	23.0	23.0	66	13.4	0	1	315	0.00	30.448 
20:00	23.2	23.2	23.2	66	13.6	0	0	---	0.00	30.444 
20:05	23.3	23.3	23.3	67	14.0	0	1	315	0.00	30.444 
20:10	23.3	23.3	23.3	68	14.3	0	1	315	0.00	30.444 
20:15	23.5	23.5	23.5	69	14.9	0	1	315	0.00	30.441 
20:20	23.6	23.6	23.6	69	14.9	0	1	315	0.00	30.441 
20:25	23.8	23.8	23.8	68	14.8	0	1	315	0.00	30.441 
20:30	23.9	23.9	23.9	68	14.9	0	1	315	0.00	30.425 
20:35	23.9	23.9	23.9	68	14.9	0	2	315	0.00	30.425 
20:40	23.9	23.9	23.9	68	14.9	0	1	315	0.00	30.425 
20:45	23.8	23.8	23.8	67	14.5	0	1	315	0.00	30.417 
20:50	23.6	23.6	23.6	67	14.3	0	4	68	0.00	30.417 
20:55	23.5	23.5	23.5	67	14.2	0	1	68	0.00	30.417 
21:00	23.5	23.5	23.5	67	14.2	0	1	68	0.00	30.411 
21:05	23.3	23.3	23.3	67	14.0	0	0	---	0.00	30.411 
21:10	23.2	23.2	23.2	68	14.2	0	1	68	0.00	30.411 
21:15	23.2	23.2	23.2	68	14.2	0	1	68	0.00	30.401 
21:20	23.0	23.0	23.0	67	13.7	0	2	68	0.00	30.401 
21:25	23.0	23.0	23.0	67	13.7	0	1	68	0.00	30.401 
21:30	22.9	22.9	22.9	67	13.6	0	1	68	0.00	30.405 
21:35	22.7	22.7	22.7	67	13.4	0	0	---	0.00	30.405 
21:40	22.5	22.5	22.5	68	13.6	0	1	68	0.00	30.405 
21:45	22.4	22.4	22.4	68	13.5	0	1	68	0.00	30.403 
21:50	22.4	22.4	22.4	68	13.5	0	0	---	0.00	30.403 
21:55	22.4	22.4	22.4	68	13.5	0	1	68	0.00	30.403 
22:00	22.4	22.4	22.4	68	13.5	0	0	---	0.00	30.404 
22:05	22.4	22.4	22.4	69	13.8	0	0	---	0.00	30.404 
22:10	22.4	22.4	22.4	69	13.8	0	3	68	0.00	30.404 
22:15	22.5	22.5	22.5	68	13.6	0	2	68	0.00	30.394 
22:20	22.5	22.5	22.5	68	13.6	0	1	68	0.00	30.394 
22:25	22.7	22.7	22.7	68	13.8	0	2	68	0.00	30.394 
22:30	22.7	22.7	22.7	69	14.1	0	1	68	0.00	30.387 
22:35	22.9	22.9	22.9	69	14.3	0	1	68	0.00	30.387 
22:40	22.9	22.9	22.9	69	14.3	0	1	68	0.00	30.387 
22:45	23.0	23.0	23.0	69	14.4	0	1	68	0.00	30.385 
22:50	23.2	23.2	23.2	69	14.6	0	2	68	0.00	30.385 
22:55	23.3	23.3	23.3	69	14.7	0	1	68	0.00	30.385 
23:00	23.3	23.3	23.3	69	14.7	0	1	68	0.00	30.386 
23:05	23.3	23.3	23.3	69	14.7	0	1	68	0.00	30.386 
23:10	23.5	23.5	23.5	69	14.9	0	2	68	0.00	30.386 
23:15	23.5	23.5	23.5	69	14.9	0	2	68	0.00	30.368 
23:20	23.5	23.5	23.5	68	14.5	0	2	68	0.00	30.368 
23:25	23.5	23.5	23.5	68	14.5	0	0	---	0.00	30.368 
23:30	23.3	23.3	23.3	68	14.3	0	1	68	0.00	30.368 
23:35	23.2	23.2	23.2	69	14.6	0	0	---	0.00	30.368 
23:40	23.2	23.2	23.2	69	14.6	0	0	---	0.00	30.368 
23:45	23.0	23.0	23.0	69	14.4	0	0	---	0.00	30.369 
23:50	23.0	23.0	23.0	69	14.4	0	1	68	0.00	30.369 
23:55	23.0	23.0	23.0	70	14.7	0	1	68	0.00	30.369 

CoCoRaHS
IN-AL-39
A2 Web Hosting
Creative Commons License
GoDaddy
search engine by freefind advanced

loaded 2018-11-15 18:11:37 • last modified 2010-11-18 10:43:29
Privacy PolicyDisclaimer
• wx.awcolley.com is powered by PmWiki v.2002016 •
• all content (unless otherwise noted) © 2018 A W Colley